createdAt,value
2017-11-06T00:02:23.742Z,16.87
2017-11-06T00:04:51.975Z,16.70
2017-11-06T00:07:19.442Z,18.07
2017-11-06T00:09:46.994Z,17.90
2017-11-06T00:12:14.496Z,20.73
2017-11-06T00:14:42.093Z,15.87
2017-11-06T00:17:09.601Z,18.53
2017-11-06T00:19:37.848Z,16.37
2017-11-06T00:22:05.427Z,18.73
2017-11-06T00:24:32.982Z,19.87
2017-11-06T00:27:00.443Z,19.07
2017-11-06T00:29:27.927Z,17.67
2017-11-06T00:31:56.319Z,18.40
2017-11-06T00:34:23.855Z,17.57
2017-11-06T00:36:51.455Z,17.43
2017-11-06T00:39:18.915Z,18.00
2017-11-06T00:41:46.410Z,17.90
2017-11-06T00:44:14.101Z,18.90
2017-11-06T00:46:41.614Z,17.00
2017-11-06T00:49:09.097Z,17.07
2017-11-06T00:51:37.359Z,20.00
2017-11-06T00:54:04.866Z,22.13
2017-11-06T00:56:32.377Z,19.50
2017-11-06T00:59:00.609Z,20.17
2017-11-06T01:01:28.175Z,25.33
2017-11-06T01:03:55.726Z,18.03
2017-11-06T01:06:23.168Z,18.53
2017-11-06T01:08:50.647Z,17.43
2017-11-06T01:11:18.089Z,19.80
2017-11-06T01:13:45.662Z,19.17
2017-11-06T01:16:13.209Z,19.47
2017-11-06T01:18:40.761Z,20.60
2017-11-06T01:21:08.326Z,21.53
2017-11-06T01:23:35.781Z,19.90
2017-11-06T01:26:03.229Z,17.20
2017-11-06T01:28:30.680Z,20.17
2017-11-06T01:30:58.246Z,21.77
2017-11-06T01:33:25.877Z,19.93
2017-11-06T01:35:53.460Z,19.00
2017-11-06T01:38:20.917Z,21.20
2017-11-06T01:40:48.378Z,21.37
2017-11-06T01:43:15.933Z,22.17
2017-11-06T01:45:43.378Z,22.30
2017-11-06T01:48:10.836Z,20.60
2017-11-06T01:50:38.282Z,21.43
2017-11-06T01:53:05.786Z,21.50
2017-11-06T01:55:33.216Z,20.67
2017-11-06T01:58:00.678Z,20.23
2017-11-06T02:00:28.131Z,17.87
2017-11-06T02:02:55.699Z,17.57
2017-11-06T02:05:23.234Z,16.60
2017-11-06T02:07:50.699Z,14.30
2017-11-06T02:10:18.153Z,13.77
2017-11-06T02:12:45.710Z,15.67
2017-11-06T02:15:13.266Z,15.43
2017-11-06T02:17:40.810Z,15.83
2017-11-06T02:20:08.266Z,16.20
2017-11-06T02:22:35.726Z,20.90
2017-11-06T02:25:03.160Z,14.63
2017-11-06T02:27:30.666Z,12.47
2017-11-06T02:29:58.125Z,13.50
2017-11-06T02:32:25.590Z,14.33
2017-11-06T02:34:53.934Z,14.17
2017-11-06T02:37:21.381Z,14.53
2017-11-06T02:39:48.838Z,14.57
2017-11-06T02:42:16.293Z,15.83
2017-11-06T02:44:43.749Z,15.07
2017-11-06T02:47:11.213Z,15.33
2017-11-06T02:49:38.658Z,14.87
2017-11-06T02:52:06.104Z,15.47
2017-11-06T02:54:33.813Z,12.63
2017-11-06T02:57:02.046Z,12.13
2017-11-06T02:59:29.494Z,12.97
2017-11-06T03:01:56.981Z,14.20
2017-11-06T03:04:24.422Z,14.60
2017-11-06T03:06:51.902Z,13.50
2017-11-06T03:09:19.357Z,14.80
2017-11-06T03:11:46.885Z,14.67
2017-11-06T03:14:14.342Z,15.13
2017-11-06T03:16:41.785Z,15.17
2017-11-06T03:19:09.233Z,14.47
2017-11-06T03:21:36.712Z,16.17
2017-11-06T03:24:04.169Z,14.93
2017-11-06T03:26:31.613Z,13.77
2017-11-06T03:28:59.183Z,14.33
2017-11-06T03:31:26.626Z,15.47
2017-11-06T03:33:54.100Z,12.90
2017-11-06T03:36:21.557Z,13.80
2017-11-06T03:38:49.105Z,14.07
2017-11-06T03:41:16.664Z,14.63
2017-11-06T03:43:44.222Z,13.23
2017-11-06T03:46:11.678Z,14.47
2017-11-06T03:48:39.134Z,14.70
2017-11-06T03:51:06.713Z,13.67
2017-11-06T03:53:34.166Z,15.03
2017-11-06T03:56:01.706Z,16.47
2017-11-06T03:58:29.263Z,17.67
2017-11-06T04:00:56.846Z,13.27
2017-11-06T04:03:25.166Z,12.03
2017-11-06T04:05:52.601Z,12.57
2017-11-06T04:08:20.051Z,11.00
2017-11-06T04:10:48.248Z,9.77
2017-11-06T04:13:15.702Z,9.07
2017-11-06T04:15:43.185Z,10.60
2017-11-06T04:18:10.746Z,10.90
2017-11-06T04:20:38.338Z,10.97
2017-11-06T04:23:09.554Z,11.30
2017-11-06T04:25:36.998Z,12.97
2017-11-06T04:28:04.446Z,12.93
2017-11-06T04:30:31.918Z,12.10
2017-11-06T04:32:59.366Z,13.07
2017-11-06T04:35:26.812Z,12.03
2017-11-06T04:37:54.353Z,12.70
2017-11-06T04:40:21.837Z,13.57
2017-11-06T04:42:49.301Z,12.57
2017-11-06T04:45:16.853Z,13.53
2017-11-06T04:47:44.405Z,13.53
2017-11-06T04:50:11.849Z,15.20
2017-11-06T04:52:39.322Z,13.83
2017-11-06T04:55:06.877Z,12.87
2017-11-06T04:57:34.328Z,15.33
2017-11-06T05:00:01.795Z,14.80
2017-11-06T05:02:29.344Z,14.77
2017-11-06T05:04:56.790Z,15.13
2017-11-06T05:07:24.349Z,14.17
2017-11-06T05:09:51.812Z,15.50
2017-11-06T05:12:19.269Z,13.70
2017-11-06T05:14:47.293Z,15.47
2017-11-06T05:17:14.742Z,15.33
2017-11-06T05:19:43.069Z,15.50
2017-11-06T05:22:10.525Z,15.10
2017-11-06T05:24:37.974Z,14.70
2017-11-06T05:27:05.442Z,13.40
2017-11-06T05:29:32.993Z,15.40
2017-11-06T05:32:00.433Z,16.30
2017-11-06T05:34:27.882Z,14.37
2017-11-06T05:36:55.382Z,13.73
2017-11-06T05:39:22.825Z,11.83
2017-11-06T05:41:50.283Z,12.50
2017-11-06T05:44:17.726Z,13.27
2017-11-06T05:46:45.178Z,13.03
2017-11-06T05:49:12.642Z,16.80
2017-11-06T05:51:40.134Z,16.03
2017-11-06T05:54:08.365Z,16.37
2017-11-06T05:56:35.829Z,16.40
2017-11-06T05:59:03.390Z,16.87
2017-11-06T06:01:30.834Z,17.90
2017-11-06T06:03:58.297Z,19.13
2017-11-06T06:06:25.854Z,17.83
2017-11-06T06:08:53.301Z,15.57
2017-11-06T06:11:20.834Z,17.20
2017-11-06T06:13:48.326Z,15.27
2017-11-06T06:16:15.873Z,17.17
2017-11-06T06:18:43.405Z,22.03
2017-11-06T06:21:11.741Z,18.27
2017-11-06T06:23:40.059Z,17.87
2017-11-06T06:26:07.512Z,18.50
2017-11-06T06:28:34.947Z,20.43
2017-11-06T06:31:03.265Z,20.97
2017-11-06T06:33:30.707Z,19.67
2017-11-06T06:35:58.290Z,19.23
2017-11-06T06:38:25.734Z,21.23
2017-11-06T06:40:53.185Z,22.33
2017-11-06T06:43:20.724Z,18.20
2017-11-06T06:45:48.179Z,20.50
2017-11-06T06:48:15.622Z,18.23
2017-11-06T06:50:43.098Z,20.37
2017-11-06T06:53:10.552Z,21.27
2017-11-06T06:55:38.104Z,22.13
2017-11-06T06:58:05.590Z,23.50
2017-11-06T07:00:33.050Z,21.37
2017-11-06T07:03:00.497Z,22.77
2017-11-06T07:05:28.053Z,23.37
2017-11-06T07:07:55.493Z,20.33
2017-11-06T07:10:22.969Z,21.20
2017-11-06T07:12:50.527Z,19.30
2017-11-06T07:15:18.089Z,18.60
2017-11-06T07:17:45.535Z,20.00
2017-11-06T07:20:13.097Z,17.73
2017-11-06T07:22:40.574Z,16.90
2017-11-06T07:25:08.106Z,15.70
2017-11-06T07:27:35.605Z,18.90
2017-11-06T07:30:03.814Z,15.87
2017-11-06T07:32:31.292Z,19.13
2017-11-06T07:34:58.751Z,21.00
2017-11-06T07:37:26.200Z,27.77
2017-11-06T07:39:53.641Z,31.53
2017-11-06T07:42:21.216Z,31.73
2017-11-06T07:44:48.706Z,31.70
2017-11-06T07:47:16.137Z,33.60
2017-11-06T07:49:43.584Z,32.93
2017-11-06T07:52:11.021Z,33.13
2017-11-06T07:54:38.493Z,33.93
2017-11-06T07:57:05.958Z,30.67
2017-11-06T07:59:33.416Z,35.60
2017-11-06T08:02:00.873Z,32.43
2017-11-06T08:04:28.354Z,37.37
2017-11-06T08:06:55.874Z,32.50
2017-11-06T08:09:23.333Z,36.27
2017-11-06T08:11:51.191Z,35.67
2017-11-06T08:14:18.659Z,36.87
2017-11-06T08:16:46.106Z,35.20
2017-11-06T08:19:13.554Z,30.70
2017-11-06T08:21:41.031Z,37.77
2017-11-06T08:24:08.473Z,33.43
2017-11-06T08:26:35.986Z,34.80
2017-11-06T08:29:04.189Z,32.93
2017-11-06T08:31:31.662Z,33.80
2017-11-06T08:33:59.146Z,31.83
2017-11-06T08:36:27.354Z,25.07
2017-11-06T08:38:54.844Z,13.77
2017-11-06T08:41:22.301Z,10.00
2017-11-06T08:43:49.862Z,12.50
2017-11-06T08:46:17.418Z,9.37
2017-11-06T08:48:44.945Z,9.43
2017-11-06T08:51:12.369Z,9.93
2017-11-06T08:53:40.587Z,10.13
2017-11-06T08:56:08.162Z,8.60
2017-11-06T08:58:35.618Z,8.70
2017-11-06T09:01:03.115Z,8.27
2017-11-06T09:03:31.342Z,9.93
2017-11-06T09:06:09.486Z,10.07
2017-11-06T09:08:37.725Z,9.33
2017-11-06T09:11:05.254Z,10.27
2017-11-06T09:13:32.744Z,8.67
2017-11-06T09:16:00.739Z,9.17
2017-11-06T09:18:28.296Z,9.70
2017-11-06T09:20:56.612Z,10.93
2017-11-06T09:23:24.093Z,9.60
2017-11-06T09:25:51.544Z,9.97
2017-11-06T09:28:19.010Z,10.93
2017-11-06T09:30:46.565Z,11.30
2017-11-06T09:33:14.129Z,10.07
2017-11-06T09:35:41.566Z,10.43
2017-11-06T09:38:09.006Z,10.43
2017-11-06T09:40:36.485Z,12.50
2017-11-06T09:43:04.018Z,10.00
2017-11-06T09:45:31.511Z,11.57
2017-11-06T09:47:58.955Z,10.70
2017-11-06T09:50:26.401Z,10.47
2017-11-06T09:52:53.996Z,10.50
2017-11-06T09:55:22.337Z,18.27
2017-11-06T09:57:49.847Z,10.60
2017-11-06T10:00:18.194Z,12.63
2017-11-06T10:02:45.645Z,9.80
2017-11-06T10:05:13.185Z,9.80
2017-11-06T10:07:40.633Z,11.07
2017-11-06T10:10:08.101Z,9.83
2017-11-06T10:12:36.312Z,11.00
2017-11-06T10:15:03.830Z,9.57
2017-11-06T10:17:31.306Z,12.53
2017-11-06T10:19:58.766Z,10.83
2017-11-06T10:22:26.210Z,10.87
2017-11-06T10:24:54.533Z,10.30
2017-11-06T10:27:22.042Z,11.67
2017-11-06T10:29:49.486Z,10.47
2017-11-06T10:32:17.053Z,10.17
2017-11-06T10:34:44.576Z,11.07
2017-11-06T10:37:12.009Z,10.90
2017-11-06T10:39:39.449Z,11.73
2017-11-06T10:42:07.688Z,13.30
2017-11-06T10:44:35.242Z,12.40
2017-11-06T10:47:02.801Z,12.13
2017-11-06T10:49:30.258Z,13.33
2017-11-06T10:51:57.706Z,13.90
2017-11-06T10:54:25.141Z,14.07
2017-11-06T10:56:52.620Z,14.70
2017-11-06T10:59:20.154Z,14.70
2017-11-06T11:01:47.581Z,15.83
2017-11-06T11:04:15.803Z,13.90
2017-11-06T11:06:43.250Z,14.53
2017-11-06T11:09:10.696Z,15.90
2017-11-06T11:11:38.147Z,16.20
2017-11-06T11:14:05.602Z,16.00
2017-11-06T11:16:33.061Z,15.50
2017-11-06T11:19:00.616Z,18.20
2017-11-06T11:21:28.102Z,18.97
2017-11-06T11:23:55.555Z,17.20
2017-11-06T11:26:23.010Z,17.60
2017-11-06T11:28:50.474Z,18.97
2017-11-06T11:31:18.021Z,20.07
2017-11-06T11:33:45.554Z,20.03
2017-11-06T11:36:13.050Z,19.13
2017-11-06T11:38:40.498Z,21.83
2017-11-06T11:41:08.125Z,23.93
2017-11-06T11:43:35.614Z,21.47
2017-11-06T11:46:03.167Z,20.03
2017-11-06T11:48:30.620Z,22.60
2017-11-06T11:50:58.089Z,22.40
2017-11-06T11:53:25.557Z,23.97
2017-11-06T11:55:53.088Z,25.63
2017-11-06T11:58:20.540Z,22.43
2017-11-06T12:00:47.993Z,19.43
2017-11-06T12:03:15.458Z,22.70
2017-11-06T12:05:42.915Z,20.50
2017-11-06T12:08:10.475Z,23.97
2017-11-06T12:10:37.921Z,23.13
2017-11-06T12:13:05.381Z,21.43
2017-11-06T12:15:32.873Z,21.67
2017-11-06T12:18:01.081Z,21.60
2017-11-06T12:20:28.560Z,19.43
2017-11-06T12:22:56.013Z,21.53
2017-11-06T12:25:23.461Z,18.83
2017-11-06T12:27:50.930Z,23.63
2017-11-06T12:30:18.386Z,20.40
2017-11-06T12:32:45.832Z,21.70
2017-11-06T12:35:13.372Z,21.07
2017-11-06T12:37:40.868Z,22.93
2017-11-06T12:40:08.310Z,22.40
2017-11-06T12:42:35.761Z,21.50
2017-11-06T12:45:03.299Z,21.47
2017-11-06T12:47:30.740Z,19.40
2017-11-06T12:49:58.181Z,18.20
2017-11-06T12:52:26.398Z,19.17
2017-11-06T12:54:53.870Z,19.40
2017-11-06T12:57:21.430Z,19.80
2017-11-06T12:59:48.882Z,22.17
2017-11-06T13:02:16.330Z,21.63
2017-11-06T13:04:43.773Z,19.67
2017-11-06T13:07:11.246Z,18.80
2017-11-06T13:09:38.695Z,16.23
2017-11-06T13:12:06.234Z,16.40
2017-11-06T13:14:33.697Z,20.60
2017-11-06T13:17:01.164Z,15.83
2017-11-06T13:19:28.605Z,17.30
2017-11-06T13:21:56.154Z,17.80
2017-11-06T13:24:23.711Z,17.00
2017-11-06T13:26:51.211Z,18.00
2017-11-06T13:29:18.662Z,16.60
2017-11-06T13:31:46.113Z,16.47
2017-11-06T13:34:13.570Z,17.43
2017-11-06T13:36:41.014Z,17.03
2017-11-06T13:39:08.579Z,16.83
2017-11-06T13:41:36.207Z,16.00
2017-11-06T13:44:03.765Z,14.67
2017-11-06T13:46:31.225Z,16.40
2017-11-06T13:48:58.714Z,16.03
2017-11-06T13:51:26.145Z,14.13
2017-11-06T13:53:53.687Z,16.77
2017-11-06T13:56:21.169Z,15.60
2017-11-06T13:58:48.618Z,15.77
2017-11-06T14:01:16.069Z,15.43
2017-11-06T14:03:43.545Z,15.47
2017-11-06T14:06:13.378Z,18.00
2017-11-06T14:08:40.914Z,16.70
2017-11-06T14:11:09.141Z,17.10
2017-11-06T14:13:36.642Z,16.60
2017-11-06T14:16:04.131Z,15.60
2017-11-06T14:18:32.361Z,15.43
2017-11-06T14:20:59.821Z,14.30
2017-11-06T14:23:27.282Z,13.93
2017-11-06T14:25:54.742Z,14.93
2017-11-06T14:28:22.210Z,12.83
2017-11-06T14:30:49.650Z,12.97
2017-11-06T14:33:17.203Z,13.83
2017-11-06T14:35:44.675Z,14.53
2017-11-06T14:38:12.128Z,15.43
2017-11-06T14:40:39.714Z,15.40
2017-11-06T14:43:07.235Z,15.63
2017-11-06T14:45:34.686Z,13.77
2017-11-06T14:48:02.124Z,15.10
2017-11-06T14:50:29.598Z,14.13
2017-11-06T14:52:57.154Z,14.27
2017-11-06T14:55:24.682Z,14.43
2017-11-06T14:57:52.174Z,16.20
2017-11-06T15:00:19.627Z,15.87
2017-11-06T15:02:47.086Z,14.53
2017-11-06T15:05:14.642Z,13.97
2017-11-06T15:07:42.090Z,15.67
2017-11-06T15:10:09.650Z,15.33
2017-11-06T15:12:37.090Z,17.90
2017-11-06T15:15:05.386Z,16.93
2017-11-06T15:17:32.842Z,14.70
2017-11-06T15:20:00.393Z,15.30
2017-11-06T15:22:27.904Z,14.33
2017-11-06T15:24:56.101Z,16.37
2017-11-06T15:27:23.549Z,16.80
2017-11-06T15:29:51.107Z,14.80
2017-11-06T15:32:18.540Z,14.10
2017-11-06T15:34:46.055Z,16.37
2017-11-06T15:37:13.537Z,14.63
2017-11-06T15:39:41.774Z,19.13
2017-11-06T15:42:09.213Z,15.63
2017-11-06T15:44:36.726Z,16.80
2017-11-06T15:47:04.938Z,16.40
2017-11-06T15:49:32.490Z,15.53
2017-11-06T15:51:59.933Z,15.27
2017-11-06T15:54:27.385Z,14.97
2017-11-06T15:56:54.888Z,16.93
2017-11-06T15:59:22.342Z,16.30
2017-11-06T16:01:49.797Z,16.83
2017-11-06T16:04:17.427Z,17.53
2017-11-06T16:06:44.938Z,18.97
2017-11-06T16:09:12.479Z,19.53
2017-11-06T16:11:39.927Z,16.83
2017-11-06T16:14:07.490Z,19.00
2017-11-06T16:16:35.018Z,19.53
2017-11-06T16:19:02.501Z,19.03
2017-11-06T16:21:30.060Z,20.67
2017-11-06T16:23:57.503Z,20.13
2017-11-06T16:26:24.998Z,20.97
2017-11-06T16:28:53.211Z,18.87
2017-11-06T16:31:20.666Z,19.83
2017-11-06T16:33:48.160Z,21.07
2017-11-06T16:36:15.638Z,20.40
2017-11-06T16:38:43.876Z,22.00
2017-11-06T16:41:11.433Z,21.20
2017-11-06T16:43:38.886Z,22.73
2017-11-06T16:46:06.493Z,19.60
2017-11-06T16:48:34.744Z,19.30
2017-11-06T16:51:02.300Z,19.43
2017-11-06T16:53:29.751Z,19.20
2017-11-06T16:55:57.198Z,21.40
2017-11-06T16:58:24.720Z,21.70
2017-11-06T17:00:52.153Z,20.30
2017-11-06T17:03:20.353Z,21.80
2017-11-06T17:05:47.914Z,20.93
2017-11-06T17:08:15.350Z,20.73
2017-11-06T17:10:42.921Z,23.67
2017-11-06T17:13:10.362Z,21.87
2017-11-06T17:15:37.837Z,23.37
2017-11-06T17:18:05.325Z,23.47
2017-11-06T17:20:33.808Z,24.27
2017-11-06T17:23:01.244Z,24.13
2017-11-06T17:25:28.726Z,22.03
2017-11-06T17:27:56.263Z,23.33
2017-11-06T17:30:23.729Z,21.73
2017-11-06T17:32:51.180Z,22.43
2017-11-06T17:35:18.739Z,27.23
2017-11-06T17:37:46.190Z,23.60
2017-11-06T17:40:13.819Z,25.90
2017-11-06T17:42:41.303Z,25.33
2017-11-06T17:45:08.753Z,22.10
2017-11-06T17:47:36.249Z,22.93
2017-11-06T17:50:04.514Z,21.80
2017-11-06T17:52:32.059Z,21.53
2017-11-06T17:54:59.610Z,22.73
2017-11-06T17:57:27.166Z,21.67
2017-11-06T17:59:54.744Z,23.50
2017-11-06T18:02:22.229Z,22.43
2017-11-06T18:04:49.728Z,22.03
2017-11-06T18:07:17.169Z,22.90
2017-11-06T18:09:44.640Z,23.60
2017-11-06T18:12:12.088Z,23.30
2017-11-06T18:14:39.552Z,22.47
2017-11-06T18:17:06.998Z,25.43
2017-11-06T18:19:34.485Z,22.97
2017-11-06T18:22:01.933Z,34.13
2017-11-06T18:24:29.478Z,32.13
2017-11-06T18:26:56.929Z,18.00
2017-11-06T18:29:24.369Z,14.83
2017-11-06T18:31:51.825Z,15.70
2017-11-06T18:34:19.333Z,18.87
2017-11-06T18:36:46.866Z,21.03
2017-11-06T18:39:14.310Z,23.73
2017-11-06T18:41:41.793Z,22.90
2017-11-06T18:44:09.249Z,23.00
2017-11-06T18:46:36.781Z,25.77
2017-11-06T18:49:04.225Z,24.37
2017-11-06T18:51:31.694Z,25.03
2017-11-06T18:53:59.157Z,23.07
2017-11-06T18:56:26.610Z,27.23
2017-11-06T18:58:54.091Z,25.17
2017-11-06T19:01:23.234Z,27.27
2017-11-06T19:03:50.733Z,22.70
2017-11-06T19:06:18.225Z,25.83
2017-11-06T19:08:45.721Z,26.40
2017-11-06T19:11:13.176Z,28.23
2017-11-06T19:13:40.638Z,24.87
2017-11-06T19:16:08.086Z,25.17
2017-11-06T19:18:35.530Z,27.43
2017-11-06T19:21:02.992Z,23.93
2017-11-06T19:23:30.429Z,25.80
2017-11-06T19:25:57.905Z,33.60
2017-11-06T19:28:25.365Z,31.33
2017-11-06T19:30:52.816Z,29.40
2017-11-06T19:33:20.281Z,28.97
2017-11-06T19:35:47.728Z,30.37
2017-11-06T19:38:15.181Z,24.70
2017-11-06T19:40:42.624Z,26.53
2017-11-06T19:43:10.101Z,28.90
2017-11-06T19:45:37.538Z,25.70
2017-11-06T19:48:05.015Z,27.83
2017-11-06T19:50:33.446Z,23.80
2017-11-06T19:53:01.017Z,25.90
2017-11-06T19:55:28.441Z,25.20
2017-11-06T19:57:56.661Z,27.00
2017-11-06T20:00:24.156Z,25.30
2017-11-06T20:02:52.410Z,26.93
2017-11-06T20:05:19.873Z,22.00
2017-11-06T20:07:47.377Z,22.43
2017-11-06T20:10:14.901Z,22.53
2017-11-06T20:12:42.442Z,21.77
2017-11-06T20:15:09.940Z,19.20
2017-11-06T20:17:38.190Z,14.63
2017-11-06T20:20:05.984Z,13.90
2017-11-06T20:22:33.838Z,13.37
2017-11-06T20:25:02.097Z,14.40
2017-11-06T20:27:29.683Z,12.20
2017-11-06T20:29:57.247Z,12.50
2017-11-06T20:32:25.511Z,13.33
2017-11-06T20:34:53.086Z,11.97
2017-11-06T20:37:20.528Z,11.40
2017-11-06T20:39:48.025Z,10.90
2017-11-06T20:42:15.473Z,11.97
2017-11-06T20:44:42.920Z,13.73
2017-11-06T20:47:10.389Z,14.00
2017-11-06T20:49:37.833Z,12.30
2017-11-06T20:52:05.376Z,12.40
2017-11-06T20:54:32.805Z,15.57
2017-11-06T20:57:00.313Z,15.30
2017-11-06T20:59:27.884Z,14.27
2017-11-06T21:01:55.429Z,13.67
2017-11-06T21:04:22.886Z,15.70
2017-11-06T21:06:50.477Z,12.60
2017-11-06T21:09:19.200Z,12.73
2017-11-06T21:11:46.686Z,14.77
2017-11-06T21:14:14.138Z,14.30
2017-11-06T21:16:41.697Z,12.37
2017-11-06T21:19:09.257Z,16.00
2017-11-06T21:21:36.805Z,14.53
2017-11-06T21:24:04.245Z,13.37
2017-11-06T21:26:31.694Z,14.00
2017-11-06T21:28:59.194Z,13.63
2017-11-06T21:31:26.742Z,15.13
2017-11-06T21:33:54.293Z,14.07
2017-11-06T21:36:21.741Z,13.60
2017-11-06T21:38:49.181Z,12.50
2017-11-06T21:41:16.633Z,13.30
2017-11-06T21:43:44.077Z,14.00
2017-11-06T21:46:11.529Z,13.17
2017-11-06T21:48:38.973Z,13.43
2017-11-06T21:51:07.173Z,14.07
2017-11-06T21:53:35.597Z,15.60
2017-11-06T21:56:03.134Z,12.93
2017-11-06T21:58:30.769Z,14.87
2017-11-06T22:00:58.222Z,13.47
2017-11-06T22:03:25.682Z,15.03
2017-11-06T22:05:53.122Z,15.50
2017-11-06T22:08:20.576Z,13.77
2017-11-06T22:10:48.078Z,15.67
2017-11-06T22:13:15.629Z,14.17
2017-11-06T22:15:43.210Z,16.10
2017-11-06T22:18:11.537Z,14.53
2017-11-06T22:20:38.998Z,14.63
2017-11-06T22:23:06.501Z,14.70
2017-11-06T22:25:34.058Z,15.07
2017-11-06T22:28:02.266Z,14.23
2017-11-06T22:30:29.719Z,14.10
2017-11-06T22:32:57.181Z,14.67
2017-11-06T22:35:24.609Z,13.43
2017-11-06T22:37:52.845Z,15.23
2017-11-06T22:40:20.377Z,13.47
2017-11-06T22:42:47.868Z,13.67
2017-11-06T22:45:15.310Z,14.33
2017-11-06T22:47:42.765Z,13.70
2017-11-06T22:50:10.236Z,13.00
2017-11-06T22:52:37.669Z,13.30
2017-11-06T22:55:05.151Z,14.63
2017-11-06T22:57:32.586Z,14.83
2017-11-06T23:00:00.042Z,14.73
2017-11-06T23:02:27.489Z,14.60
2017-11-06T23:04:54.993Z,14.53
2017-11-06T23:07:23.246Z,16.60
2017-11-06T23:09:50.691Z,17.00
2017-11-06T23:12:18.245Z,16.60
2017-11-06T23:14:45.710Z,17.00
2017-11-06T23:17:13.292Z,15.63
2017-11-06T23:19:40.991Z,17.67
2017-11-06T23:22:08.560Z,15.40
2017-11-06T23:24:36.045Z,15.57
2017-11-06T23:27:03.514Z,16.23
2017-11-06T23:29:31.750Z,15.17
2017-11-06T23:31:59.279Z,17.30
2017-11-06T23:34:27.522Z,18.57
2017-11-06T23:36:55.761Z,18.20
2017-11-06T23:39:23.244Z,18.80
2017-11-06T23:41:51.544Z,17.40
2017-11-06T23:44:19.773Z,18.63
2017-11-06T23:46:47.317Z,19.87
2017-11-06T23:49:14.826Z,19.07
2017-11-06T23:51:43.098Z,22.93
2017-11-06T23:54:18.477Z,21.60
2017-11-06T23:56:46.695Z,21.60
2017-11-06T23:59:14.142Z,20.27
